Terminal Aerodrome Forecast
Issued by NWS

Home | Current Version | Previous Version | Graphics & Text | Print | Product List | Glossary On
Versions: 1 2 3 4 5 6 7 8 9 10 11 12 13 14
495
FTUS42 KMHX 100547
TAFISO
TAF
KISO 100547Z 1006/1106 26005KT P6SM SCT070
     FM101500 27010G17KT P6SM BKN045
     FM110000 25005KT P6SM SKC
      AMD LTD TO CLD VIS AND WIND=

USA.gov is the U.S. government's official web portal to all federal, state and local government web resources and services.